createdAt,value
2018-07-12T00:00:04.628Z,23.17
2018-07-12T00:02:31.957Z,24.23
2018-07-12T00:04:59.277Z,23.77
2018-07-12T00:07:26.596Z,25.43
2018-07-12T00:09:53.902Z,24.00
2018-07-12T00:12:21.546Z,24.50
2018-07-12T00:14:48.954Z,25.97
2018-07-12T00:17:16.254Z,25.83
2018-07-12T00:19:43.808Z,24.40
2018-07-12T00:22:11.508Z,23.90
2018-07-12T00:24:38.906Z,24.53
2018-07-12T00:27:06.257Z,25.00
2018-07-12T00:29:33.541Z,24.97
2018-07-12T00:32:00.949Z,25.20
2018-07-12T00:34:28.617Z,23.43
2018-07-12T00:36:55.905Z,25.10
2018-07-12T00:39:23.234Z,25.47
2018-07-12T00:41:50.700Z,23.67
2018-07-12T00:44:18.089Z,25.20
2018-07-12T00:46:45.396Z,24.53
2018-07-12T00:49:12.879Z,24.77
2018-07-12T00:51:40.322Z,25.10
2018-07-12T00:54:07.641Z,24.37
2018-07-12T00:56:34.946Z,25.10
2018-07-12T00:59:02.257Z,25.40
2018-07-12T01:01:29.778Z,25.17
2018-07-12T01:03:57.080Z,25.03
2018-07-12T01:06:24.557Z,25.03
2018-07-12T01:08:51.872Z,25.43
2018-07-12T01:11:19.161Z,24.23
2018-07-12T01:13:46.819Z,25.00
2018-07-12T01:16:14.378Z,24.50
2018-07-12T01:18:41.960Z,25.70
2018-07-12T01:21:09.626Z,25.17
2018-07-12T01:23:36.918Z,24.97
2018-07-12T01:26:04.781Z,25.77
2018-07-12T01:28:32.345Z,26.10
2018-07-12T01:31:00.009Z,24.73
2018-07-12T01:33:27.425Z,25.70
2018-07-12T01:35:55.055Z,26.47
2018-07-12T01:38:22.819Z,24.80
2018-07-12T01:40:50.117Z,26.77
2018-07-12T01:43:17.484Z,26.97
2018-07-12T01:45:44.984Z,27.77
2018-07-12T01:48:12.543Z,27.07
2018-07-12T01:50:40.091Z,28.10
2018-07-12T01:53:07.743Z,29.17
2018-07-12T01:55:35.333Z,28.17
2018-07-12T01:58:02.649Z,30.03
2018-07-12T02:00:29.943Z,31.53
2018-07-12T02:02:57.280Z,32.07
2018-07-12T02:05:24.826Z,34.67
2018-07-12T02:07:52.179Z,35.50
2018-07-12T02:10:19.558Z,37.50
2018-07-12T02:12:47.121Z,38.40
2018-07-12T02:15:14.431Z,41.43
2018-07-12T02:17:41.743Z,42.07
2018-07-12T02:20:09.061Z,43.27
2018-07-12T02:22:37.350Z,42.37
2018-07-12T02:25:04.704Z,43.73
2018-07-12T02:27:32.063Z,44.37
2018-07-12T02:29:59.360Z,49.40
2018-07-12T02:32:27.042Z,48.20
2018-07-12T02:34:54.337Z,50.00
2018-07-12T02:37:21.685Z,50.40
2018-07-12T02:39:49.029Z,50.30
2018-07-12T02:42:16.325Z,51.17
2018-07-12T02:44:43.670Z,52.20
2018-07-12T02:47:11.259Z,49.60
2018-07-12T02:49:38.880Z,46.30
2018-07-12T02:52:06.367Z,44.00
2018-07-12T02:54:33.799Z,44.20
2018-07-12T02:57:01.116Z,41.90
2018-07-12T02:59:28.845Z,43.80
2018-07-12T03:01:56.186Z,43.33
2018-07-12T03:04:23.547Z,44.03
2018-07-12T03:06:50.882Z,45.33
2018-07-12T03:09:18.257Z,45.10
2018-07-12T03:11:45.729Z,45.10
2018-07-12T03:14:13.162Z,43.87
2018-07-12T03:16:40.753Z,43.43
2018-07-12T03:19:08.080Z,44.03
2018-07-12T03:21:35.537Z,42.53
2018-07-12T03:24:03.806Z,42.03
2018-07-12T03:26:31.131Z,41.60
2018-07-12T03:28:58.613Z,43.43
2018-07-12T03:31:26.053Z,42.53
2018-07-12T03:33:53.449Z,44.83
2018-07-12T03:36:20.815Z,43.77
2018-07-12T03:38:48.100Z,42.60
2018-07-12T03:41:15.458Z,42.53
2018-07-12T03:43:42.824Z,41.27
2018-07-12T03:46:10.191Z,39.10
2018-07-12T03:48:37.582Z,38.50
2018-07-12T03:51:04.891Z,39.90
2018-07-12T03:53:32.226Z,39.07
2018-07-12T03:55:59.553Z,39.57
2018-07-12T03:58:27.653Z,38.17
2018-07-12T04:00:55.175Z,36.87
2018-07-12T04:03:22.456Z,40.53
2018-07-12T04:05:49.797Z,36.80
2018-07-12T04:08:17.183Z,38.67
2018-07-12T04:10:44.572Z,35.27
2018-07-12T04:13:11.993Z,34.80
2018-07-12T04:15:39.338Z,31.43
2018-07-12T04:18:06.873Z,29.37
2018-07-12T04:20:34.474Z,25.70
2018-07-12T04:23:01.817Z,24.30
2018-07-12T04:25:29.241Z,22.93
2018-07-12T04:27:56.797Z,23.73
2018-07-12T04:30:24.234Z,21.97
2018-07-12T04:35:25.331Z,19.40
2018-07-12T04:37:52.780Z,18.47
2018-07-12T04:40:20.028Z,18.90
2018-07-12T04:42:47.503Z,17.70
2018-07-12T04:45:15.016Z,17.30
2018-07-12T04:47:42.534Z,17.67
2018-07-12T04:50:10.081Z,17.27
2018-07-12T04:52:37.418Z,17.70
2018-07-12T04:55:04.888Z,15.93
2018-07-12T04:57:32.388Z,15.67
2018-07-12T04:59:59.822Z,15.70
2018-07-12T05:02:27.356Z,15.17
2018-07-12T05:04:55.075Z,16.33
2018-07-12T05:07:22.946Z,14.93
2018-07-12T05:09:50.714Z,15.13
2018-07-12T05:12:18.243Z,14.57
2018-07-12T05:14:46.295Z,13.73
2018-07-12T05:17:14.196Z,13.87
2018-07-12T05:19:41.586Z,12.77
2018-07-12T05:22:09.183Z,13.27
2018-07-12T05:24:36.522Z,13.60
2018-07-12T05:27:03.976Z,13.33
2018-07-12T05:29:31.441Z,12.77
2018-07-12T05:31:58.765Z,13.00
2018-07-12T05:34:26.489Z,13.70
2018-07-12T05:36:56.550Z,12.50
2018-07-12T05:39:25.532Z,12.13
2018-07-12T05:41:55.171Z,12.17
2018-07-12T05:44:23.610Z,12.23
2018-07-12T05:46:52.177Z,12.93
2018-07-12T05:49:20.705Z,12.43
2018-07-12T05:51:49.240Z,13.47
2018-07-12T05:54:18.794Z,12.70
2018-07-12T05:56:48.064Z,12.30
2018-07-12T05:59:17.271Z,12.30
2018-07-12T06:01:57.313Z,13.50
2018-07-12T06:04:26.199Z,12.87
2018-07-12T06:06:54.912Z,13.90
2018-07-12T06:09:23.916Z,13.77
2018-07-12T06:11:52.901Z,13.43
2018-07-12T06:14:22.104Z,14.83
2018-07-12T06:16:51.348Z,16.70
2018-07-12T06:19:19.894Z,18.77
2018-07-12T06:21:48.669Z,20.47
2018-07-12T06:24:17.699Z,21.10
2018-07-12T06:26:46.476Z,23.93
2018-07-12T06:29:14.959Z,26.10
2018-07-12T06:31:43.980Z,28.60
2018-07-12T06:34:13.548Z,26.77
2018-07-12T06:36:42.203Z,28.77
2018-07-12T06:39:11.998Z,29.20
2018-07-12T06:41:40.861Z,31.73
2018-07-12T06:44:09.427Z,33.10
2018-07-12T06:46:38.040Z,35.57
2018-07-12T06:49:07.074Z,37.20
2018-07-12T06:51:35.538Z,38.53
2018-07-12T06:54:04.137Z,39.43
2018-07-12T06:56:32.752Z,38.20
2018-07-12T06:59:01.262Z,40.13
2018-07-12T07:01:29.764Z,40.97
2018-07-12T07:03:58.269Z,42.70
2018-07-12T07:06:26.713Z,40.50
2018-07-12T07:08:55.625Z,42.10
2018-07-12T07:11:24.377Z,44.50
2018-07-12T07:13:53.067Z,44.53
2018-07-12T07:16:21.733Z,43.67
2018-07-12T07:18:50.236Z,44.57
2018-07-12T07:21:18.729Z,44.47
2018-07-12T07:23:47.380Z,43.90
2018-07-12T07:26:15.904Z,45.73
2018-07-12T07:28:45.397Z,44.23
2018-07-12T07:31:13.856Z,44.80
2018-07-12T07:33:42.673Z,45.73
2018-07-12T07:36:11.645Z,47.33
2018-07-12T07:38:40.601Z,46.37
2018-07-12T07:41:09.041Z,45.90
2018-07-12T07:43:37.869Z,47.80
2018-07-12T07:46:06.636Z,46.70
2018-07-12T07:48:35.245Z,48.23
2018-07-12T07:51:04.092Z,48.90
2018-07-12T07:53:32.800Z,49.77
2018-07-12T07:56:01.463Z,49.57
2018-07-12T07:58:29.992Z,46.70
2018-07-12T08:00:58.464Z,46.60
2018-07-12T08:03:27.637Z,46.40
2018-07-12T08:05:55.873Z,46.20
2018-07-12T08:08:24.735Z,42.70
2018-07-12T08:10:54.067Z,44.03
2018-07-12T08:13:22.616Z,42.40
2018-07-12T08:15:51.569Z,40.67
2018-07-12T08:18:20.653Z,40.57
2018-07-12T08:20:49.737Z,36.90
2018-07-12T08:23:18.823Z,36.35
2018-07-12T08:25:47.453Z,41.05
2018-07-12T08:28:25.726Z,39.55
2018-07-12T08:30:54.842Z,40.28
2018-07-12T08:33:23.918Z,42.08
2018-07-12T08:35:53.080Z,38.67
2018-07-12T08:38:21.798Z,35.58
2018-07-12T08:40:50.646Z,38.75
2018-07-12T08:43:19.964Z,38.60
2018-07-12T08:45:49.099Z,38.48
2018-07-12T08:48:18.576Z,37.75
2018-07-12T08:50:47.597Z,38.02
2018-07-12T08:53:16.814Z,38.00
2018-07-12T08:55:45.773Z,38.80
2018-07-12T08:58:14.786Z,38.67
2018-07-12T09:00:43.484Z,35.52
2018-07-12T09:03:12.437Z,35.33
2018-07-12T09:05:41.142Z,37.35
2018-07-12T09:08:10.136Z,37.23
2018-07-12T09:10:38.738Z,34.53
2018-07-12T09:13:07.504Z,30.37
2018-07-12T09:15:36.465Z,32.88
2018-07-12T09:18:06.337Z,31.52
2018-07-12T09:20:35.548Z,31.17
2018-07-12T09:23:04.564Z,28.23
2018-07-12T09:25:34.221Z,28.35
2018-07-12T09:28:03.533Z,28.35
2018-07-12T09:30:33.236Z,30.43
2018-07-12T09:33:02.116Z,31.75
2018-07-12T09:35:30.969Z,26.33
2018-07-12T09:38:00.347Z,26.48
2018-07-12T09:40:29.396Z,28.73
2018-07-12T09:42:58.338Z,28.00
2018-07-12T09:45:27.435Z,26.70
2018-07-12T09:47:56.433Z,26.87
2018-07-12T09:50:25.473Z,27.05
2018-07-12T09:52:54.539Z,29.32
2018-07-12T09:55:23.305Z,27.02
2018-07-12T09:58:11.459Z,25.68
2018-07-12T10:00:45.760Z,27.87
2018-07-12T10:03:20.820Z,28.17
2018-07-12T10:05:55.172Z,26.33
2018-07-12T10:08:29.938Z,25.50
2018-07-12T10:11:04.228Z,24.85
2018-07-12T10:13:38.286Z,26.23
2018-07-12T10:16:12.583Z,29.07
2018-07-12T10:18:41.074Z,26.37
2018-07-12T10:21:10.084Z,22.40
2018-07-12T10:23:38.908Z,24.20
2018-07-12T10:26:07.533Z,21.33
2018-07-12T10:28:36.208Z,19.42
2018-07-12T10:31:04.725Z,18.57
2018-07-12T10:33:33.167Z,18.62
2018-07-12T10:36:01.654Z,20.20
2018-07-12T10:38:30.230Z,17.98
2018-07-12T10:40:58.823Z,20.62
2018-07-12T10:43:28.020Z,21.73
2018-07-12T10:45:56.808Z,21.42
2018-07-12T10:48:26.295Z,21.68
2018-07-12T10:50:54.917Z,21.82
2018-07-12T10:53:23.397Z,19.98
2018-07-12T10:55:52.329Z,21.05
2018-07-12T10:58:21.597Z,21.52
2018-07-12T11:00:50.661Z,20.57
2018-07-12T11:03:19.287Z,18.90
2018-07-12T11:05:48.207Z,18.48
2018-07-12T11:08:17.082Z,18.67
2018-07-12T11:10:45.961Z,19.42
2018-07-12T11:13:17.738Z,18.10
2018-07-12T11:15:47.131Z,18.65
2018-07-12T11:18:15.877Z,18.33
2018-07-12T11:20:44.405Z,19.33
2018-07-12T11:23:13.000Z,19.93
2018-07-12T11:25:41.953Z,21.03
2018-07-12T11:28:10.699Z,22.13
2018-07-12T11:30:40.017Z,21.63
2018-07-12T11:33:20.020Z,19.00
2018-07-12T11:35:49.012Z,13.70
2018-07-12T11:38:17.754Z,13.20
2018-07-12T11:40:46.912Z,13.30
2018-07-12T11:43:16.444Z,16.37
2018-07-12T11:45:45.403Z,14.43
2018-07-12T11:48:14.026Z,14.57
2018-07-12T11:50:42.576Z,13.50
2018-07-12T11:53:11.497Z,15.20
2018-07-12T11:55:40.134Z,14.23
2018-07-12T11:58:09.013Z,14.57
2018-07-12T12:00:37.857Z,13.17
2018-07-12T12:03:06.606Z,11.83
2018-07-12T12:05:35.969Z,12.13
2018-07-12T12:08:04.927Z,12.10
2018-07-12T12:10:33.603Z,10.37
2018-07-12T12:13:03.525Z,9.40
2018-07-12T12:15:32.458Z,11.93
2018-07-12T12:18:01.758Z,11.17
2018-07-12T12:20:30.227Z,10.80
2018-07-12T12:22:59.169Z,12.47
2018-07-12T12:25:27.648Z,11.63
2018-07-12T12:27:56.960Z,12.43
2018-07-12T12:30:26.166Z,12.53
2018-07-12T12:32:54.925Z,11.90
2018-07-12T12:35:23.453Z,11.80
2018-07-12T12:37:52.958Z,10.90
2018-07-12T12:40:21.556Z,9.90
2018-07-12T12:42:50.267Z,9.50
2018-07-12T12:45:18.853Z,10.67
2018-07-12T12:47:47.542Z,9.97
2018-07-12T12:50:16.423Z,9.93
2018-07-12T12:52:45.061Z,10.87
2018-07-12T12:55:14.037Z,10.00
2018-07-12T12:57:42.550Z,11.90
2018-07-12T13:00:11.110Z,10.30
2018-07-12T13:02:39.581Z,9.70
2018-07-12T13:05:08.185Z,10.10
2018-07-12T13:07:36.902Z,9.93
2018-07-12T13:10:05.838Z,9.90
2018-07-12T13:12:34.392Z,11.17
2018-07-12T13:15:03.069Z,10.67
2018-07-12T13:17:31.652Z,10.20
2018-07-12T13:20:00.483Z,10.70
2018-07-12T13:22:29.222Z,9.70
2018-07-12T13:24:58.112Z,10.33
2018-07-12T13:27:26.821Z,8.80
2018-07-12T13:29:55.482Z,9.57
2018-07-12T13:32:23.971Z,8.40
2018-07-12T13:34:52.566Z,7.77
2018-07-12T13:37:21.144Z,7.27
2018-07-12T13:39:50.592Z,8.13
2018-07-12T13:42:19.644Z,7.97
2018-07-12T13:44:48.173Z,6.77
2018-07-12T13:47:17.121Z,7.53
2018-07-12T13:49:45.871Z,7.57
2018-07-12T13:52:14.449Z,7.20
2018-07-12T13:54:43.030Z,6.80
2018-07-12T13:57:11.800Z,7.03
2018-07-12T13:59:40.411Z,6.13
2018-07-12T14:02:08.998Z,5.33
2018-07-12T14:04:37.604Z,6.90
2018-07-12T14:07:06.322Z,6.53
2018-07-12T14:09:35.109Z,5.90
2018-07-12T14:12:03.852Z,5.97
2018-07-12T14:14:33.234Z,5.70
2018-07-12T14:17:02.121Z,5.93
2018-07-12T14:19:31.461Z,6.50
2018-07-12T14:22:00.227Z,6.23
2018-07-12T14:24:29.180Z,5.90
2018-07-12T14:26:58.004Z,6.93
2018-07-12T14:29:26.761Z,5.70
2018-07-12T14:31:55.369Z,6.90
2018-07-12T14:34:24.573Z,6.67
2018-07-12T14:36:53.320Z,6.30
2018-07-12T14:39:22.046Z,6.27
2018-07-12T14:41:50.837Z,6.90
2018-07-12T14:44:19.661Z,6.47
2018-07-12T14:46:48.290Z,5.73
2018-07-12T14:49:17.583Z,6.00
2018-07-12T14:51:46.272Z,5.03
2018-07-12T14:54:14.966Z,5.53
2018-07-12T14:56:43.893Z,6.17
2018-07-12T14:59:12.793Z,5.90
2018-07-12T15:01:41.275Z,5.83
2018-07-12T15:04:10.099Z,5.57
2018-07-12T15:06:38.946Z,5.40
2018-07-12T15:09:08.303Z,5.37
2018-07-12T15:11:37.965Z,5.40
2018-07-12T15:14:06.967Z,6.63
2018-07-12T15:16:35.493Z,6.57
2018-07-12T15:19:04.281Z,5.83
2018-07-12T15:21:32.990Z,6.03
2018-07-12T15:24:01.853Z,5.77
2018-07-12T15:26:31.056Z,4.90
2018-07-12T15:28:59.925Z,5.00
2018-07-12T15:31:28.705Z,7.20
2018-07-12T15:33:57.237Z,7.37
2018-07-12T15:36:25.743Z,5.90
2018-07-12T15:38:54.246Z,5.50
2018-07-12T15:41:22.430Z,4.87
2018-07-12T15:43:51.072Z,5.10
2018-07-12T15:46:19.776Z,5.10
2018-07-12T15:48:48.552Z,5.10
2018-07-12T15:51:18.686Z,5.17
2018-07-12T15:53:50.799Z,7.33
2018-07-12T15:56:19.535Z,4.80
2018-07-12T15:58:50.659Z,5.50
2018-07-12T16:01:19.701Z,5.40
2018-07-12T16:03:49.028Z,6.07
2018-07-12T16:06:18.530Z,6.60
2018-07-12T16:21:47.703Z,4.43
2018-07-12T16:24:16.711Z,5.20
2018-07-12T16:26:45.455Z,4.60
2018-07-12T16:29:14.145Z,6.27
2018-07-12T16:31:43.105Z,4.20
2018-07-12T16:34:11.742Z,4.83
2018-07-12T16:36:40.374Z,3.67
2018-07-12T16:39:09.340Z,4.63
2018-07-12T16:41:37.848Z,4.40
2018-07-12T16:44:06.684Z,4.00
2018-07-12T16:46:35.236Z,4.43
2018-07-12T16:49:03.781Z,4.43
2018-07-12T16:51:32.551Z,3.83
2018-07-12T16:54:01.209Z,4.13
2018-07-12T16:56:29.946Z,4.70
2018-07-12T16:58:59.254Z,3.57
2018-07-12T17:01:27.809Z,3.90
2018-07-12T17:03:56.318Z,4.17
2018-07-12T17:06:24.950Z,3.40
2018-07-12T17:08:53.432Z,3.50
2018-07-12T17:11:21.960Z,3.87
2018-07-12T17:13:51.027Z,4.67
2018-07-12T17:16:19.647Z,3.80
2018-07-12T17:18:48.296Z,3.87
2018-07-12T17:21:16.882Z,3.73
2018-07-12T17:23:45.562Z,4.10
2018-07-12T17:26:14.265Z,3.67
2018-07-12T17:28:43.704Z,3.90
2018-07-12T17:31:12.285Z,3.20
2018-07-12T17:33:40.938Z,3.40
2018-07-12T17:36:09.507Z,3.10
2018-07-12T17:38:38.308Z,4.03
2018-07-12T17:41:07.064Z,4.27
2018-07-12T17:43:36.613Z,4.13
2018-07-12T17:46:05.217Z,3.33
2018-07-12T17:48:34.185Z,3.20
2018-07-12T17:51:02.610Z,4.03
2018-07-12T17:53:31.583Z,3.53
2018-07-12T17:56:00.236Z,3.70
2018-07-12T17:58:29.015Z,4.67
2018-07-12T18:00:57.851Z,3.80
2018-07-12T18:03:26.669Z,4.13
2018-07-12T18:05:55.533Z,4.03
2018-07-12T18:08:24.195Z,3.67
2018-07-12T18:10:53.158Z,3.77
2018-07-12T18:13:22.087Z,3.73
2018-07-12T18:15:50.673Z,3.53
2018-07-12T18:18:19.613Z,3.70
2018-07-12T18:20:48.300Z,4.20
2018-07-12T18:23:16.988Z,3.37
2018-07-12T18:25:45.787Z,4.10
2018-07-12T18:28:14.587Z,3.87
2018-07-12T18:30:43.306Z,3.50
2018-07-12T18:33:11.649Z,3.93
2018-07-12T18:35:40.343Z,3.80
2018-07-12T18:38:09.054Z,3.33
2018-07-12T18:40:38.111Z,3.20
2018-07-12T18:43:06.929Z,3.60
2018-07-12T18:45:35.750Z,3.93
2018-07-12T18:48:04.620Z,4.50
2018-07-12T18:50:34.349Z,3.60
2018-07-12T18:53:03.241Z,3.27
2018-07-12T18:55:32.001Z,3.80
2018-07-12T18:58:01.385Z,3.83
2018-07-12T19:00:30.163Z,3.70
2018-07-12T19:02:58.940Z,3.80
2018-07-12T19:05:28.165Z,3.90
2018-07-12T19:07:57.135Z,4.40
2018-07-12T19:10:25.895Z,3.57
2018-07-12T19:12:54.425Z,3.83
2018-07-12T19:15:22.976Z,3.87
2018-07-12T19:17:52.025Z,3.80
2018-07-12T19:20:20.808Z,3.40
2018-07-12T19:22:49.429Z,3.60
2018-07-12T19:25:18.116Z,3.80
2018-07-12T19:27:46.757Z,4.37
2018-07-12T19:30:15.372Z,3.87
2018-07-12T19:32:44.189Z,3.77
2018-07-12T19:35:13.404Z,3.90
2018-07-12T19:37:41.997Z,3.80
2018-07-12T19:40:11.056Z,3.67
2018-07-12T19:42:39.930Z,3.50
2018-07-12T19:45:08.804Z,3.60
2018-07-12T19:47:37.704Z,3.13
2018-07-12T19:50:06.765Z,3.93
2018-07-12T19:52:35.867Z,2.70
2018-07-12T19:55:04.971Z,3.10
2018-07-12T19:57:33.917Z,3.50
2018-07-12T20:00:03.018Z,3.23
2018-07-12T20:02:32.022Z,2.93
2018-07-12T20:05:00.713Z,3.20
2018-07-12T20:07:35.998Z,3.43
2018-07-12T20:10:04.630Z,3.23
2018-07-12T20:12:33.229Z,3.23
2018-07-12T20:15:02.375Z,3.60
2018-07-12T20:17:31.305Z,3.90
2018-07-12T20:20:00.221Z,3.40
2018-07-12T20:22:28.919Z,3.40
2018-07-12T20:24:57.523Z,3.67
2018-07-12T20:27:26.141Z,2.87
2018-07-12T20:29:54.630Z,3.60
2018-07-12T20:32:23.120Z,3.70
2018-07-12T20:34:51.591Z,3.53
2018-07-12T20:37:20.184Z,3.90
2018-07-12T20:39:48.688Z,3.53
2018-07-12T20:42:17.330Z,3.50
2018-07-12T20:44:45.998Z,3.27
2018-07-12T20:47:14.589Z,4.23
2018-07-12T20:49:43.107Z,3.27
2018-07-12T20:52:11.855Z,3.90
2018-07-12T20:54:40.476Z,3.60
2018-07-12T20:57:09.225Z,3.30
2018-07-12T20:59:37.750Z,3.70
2018-07-12T21:02:06.575Z,3.20
2018-07-12T21:04:35.287Z,4.07
2018-07-12T21:07:03.933Z,4.80
2018-07-12T21:09:33.204Z,4.13
2018-07-12T21:12:01.898Z,3.63
2018-07-12T21:14:30.513Z,3.77
2018-07-12T21:16:59.112Z,4.20
2018-07-12T21:19:27.832Z,4.07
2018-07-12T21:21:56.490Z,4.37
2018-07-12T21:24:25.144Z,3.90
2018-07-12T21:26:53.674Z,3.87
2018-07-12T21:29:22.466Z,3.77
2018-07-12T21:31:51.138Z,4.13
2018-07-12T21:34:19.782Z,4.40
2018-07-12T21:36:48.289Z,4.30
2018-07-12T21:39:16.994Z,4.13
2018-07-12T21:41:45.478Z,4.23
2018-07-12T21:44:14.013Z,4.13
2018-07-12T21:46:42.621Z,4.00
2018-07-12T21:49:11.087Z,4.00
2018-07-12T21:51:39.637Z,3.97
2018-07-12T21:54:08.249Z,4.07
2018-07-12T21:56:36.711Z,3.63
2018-07-12T21:59:05.509Z,4.37
2018-07-12T22:01:34.066Z,4.20
2018-07-12T22:04:02.729Z,4.63
2018-07-12T22:06:44.384Z,4.57
2018-07-12T22:09:13.004Z,4.07
2018-07-12T22:11:41.477Z,3.93
2018-07-12T22:14:10.064Z,3.80
2018-07-12T22:16:38.637Z,4.13
2018-07-12T22:19:07.386Z,4.80
2018-07-12T22:21:35.898Z,4.50
2018-07-12T22:24:04.835Z,4.13
2018-07-12T22:26:33.365Z,4.30
2018-07-12T22:29:02.134Z,4.53
2018-07-12T22:31:30.624Z,4.43
2018-07-12T22:33:59.322Z,4.97
2018-07-12T22:36:27.949Z,5.20
2018-07-12T22:38:56.488Z,4.80
2018-07-12T22:41:25.058Z,5.03
2018-07-12T22:43:53.553Z,5.37
2018-07-12T22:46:22.154Z,5.00
2018-07-12T22:48:50.943Z,4.77
2018-07-12T22:51:19.561Z,4.60
2018-07-12T22:53:47.797Z,5.33
2018-07-12T22:56:16.691Z,4.93
2018-07-12T22:58:45.317Z,5.27
2018-07-12T23:01:13.581Z,5.30
2018-07-12T23:03:42.266Z,5.93
2018-07-12T23:06:11.058Z,6.10
2018-07-12T23:08:39.666Z,5.57
2018-07-12T23:11:08.287Z,5.90
2018-07-12T23:13:37.800Z,6.40
2018-07-12T23:16:06.426Z,5.67
2018-07-12T23:18:35.517Z,6.53
2018-07-12T23:21:04.102Z,5.60
2018-07-12T23:23:32.786Z,5.80
2018-07-12T23:26:01.308Z,6.40
2018-07-12T23:28:29.790Z,6.63
2018-07-12T23:30:58.441Z,5.70
2018-07-12T23:33:27.036Z,6.10
2018-07-12T23:35:55.925Z,6.00
2018-07-12T23:38:24.623Z,6.67
2018-07-12T23:40:53.127Z,5.97
2018-07-12T23:43:21.997Z,6.53
2018-07-12T23:45:50.515Z,6.67
2018-07-12T23:48:19.084Z,6.07
2018-07-12T23:50:47.802Z,6.23
2018-07-12T23:53:16.352Z,6.40
2018-07-12T23:55:45.357Z,6.30
2018-07-12T23:58:13.493Z,6.60
